sensor_id;sensor_type;location;lat;lon;timestamp;P1;durP1;ratioP1;P2;durP2;ratioP2
27728;SDS011;15126;42.186;24.340;2023-03-01T00:01:00;7.30;;;6.70;;
27728;SDS011;15126;42.186;24.340;2023-03-01T00:03:28;7.60;;;6.90;;
27728;SDS011;15126;42.186;24.340;2023-03-01T00:05:54;8.03;;;7.27;;
27728;SDS011;15126;42.186;24.340;2023-03-01T00:08:21;7.20;;;6.60;;
27728;SDS011;15126;42.186;24.340;2023-03-01T00:10:48;5.83;;;5.30;;
27728;SDS011;15126;42.186;24.340;2023-03-01T00:13:16;6.83;;;6.23;;
27728;SDS011;15126;42.186;24.340;2023-03-01T00:15:43;6.03;;;5.53;;
27728;SDS011;15126;42.186;24.340;2023-03-01T00:18:10;6.07;;;5.47;;
27728;SDS011;15126;42.186;24.340;2023-03-01T00:20:37;5.87;;;5.37;;
27728;SDS011;15126;42.186;24.340;2023-03-01T00:23:04;5.47;;;4.97;;
27728;SDS011;15126;42.186;24.340;2023-03-01T00:25:30;5.07;;;4.57;;
27728;SDS011;15126;42.186;24.340;2023-03-01T00:27:57;5.20;;;4.77;;
27728;SDS011;15126;42.186;24.340;2023-03-01T00:30:25;5.27;;;4.77;;
27728;SDS011;15126;42.186;24.340;2023-03-01T00:32:52;5.30;;;4.80;;
27728;SDS011;15126;42.186;24.340;2023-03-01T00:35:19;5.00;;;4.60;;
27728;SDS011;15126;42.186;24.340;2023-03-01T00:37:48;5.87;;;5.23;;
27728;SDS011;15126;42.186;24.340;2023-03-01T00:40:18;5.43;;;5.03;;
27728;SDS011;15126;42.186;24.340;2023-03-01T00:42:45;5.50;;;5.10;;
27728;SDS011;15126;42.186;24.340;2023-03-01T00:45:12;4.80;;;4.40;;
27728;SDS011;15126;42.186;24.340;2023-03-01T00:47:40;4.80;;;4.40;;
27728;SDS011;15126;42.186;24.340;2023-03-01T00:50:07;5.00;;;4.60;;
27728;SDS011;15126;42.186;24.340;2023-03-01T00:52:35;4.73;;;4.33;;
27728;SDS011;15126;42.186;24.340;2023-03-01T00:55:02;4.87;;;4.50;;
27728;SDS011;15126;42.186;24.340;2023-03-01T00:57:30;4.63;;;4.23;;
27728;SDS011;15126;42.186;24.340;2023-03-01T00:59:57;4.30;;;4.00;;
27728;SDS011;15126;42.186;24.340;2023-03-01T01:02:24;4.03;;;3.63;;
27728;SDS011;15126;42.186;24.340;2023-03-01T01:04:52;4.77;;;4.43;;
27728;SDS011;15126;42.186;24.340;2023-03-01T01:07:19;5.03;;;4.53;;
27728;SDS011;15126;42.186;24.340;2023-03-01T01:09:46;6.30;;;5.80;;
27728;SDS011;15126;42.186;24.340;2023-03-01T01:12:12;6.07;;;5.57;;
27728;SDS011;15126;42.186;24.340;2023-03-01T01:14:39;5.87;;;5.37;;
27728;SDS011;15126;42.186;24.340;2023-03-01T01:17:06;6.87;;;6.27;;
27728;SDS011;15126;42.186;24.340;2023-03-01T01:19:33;5.97;;;5.47;;
27728;SDS011;15126;42.186;24.340;2023-03-01T01:22:01;7.67;;;6.97;;
27728;SDS011;15126;42.186;24.340;2023-03-01T01:24:28;6.23;;;5.73;;
27728;SDS011;15126;42.186;24.340;2023-03-01T01:26:55;8.37;;;6.73;;
27728;SDS011;15126;42.186;24.340;2023-03-01T01:29:22;8.33;;;7.53;;
27728;SDS011;15126;42.186;24.340;2023-03-01T01:31:49;6.83;;;6.23;;
27728;SDS011;15126;42.186;24.340;2023-03-01T01:34:17;7.57;;;6.93;;
27728;SDS011;15126;42.186;24.340;2023-03-01T01:36:47;8.60;;;6.63;;
27728;SDS011;15126;42.186;24.340;2023-03-01T01:39:16;7.20;;;6.40;;
27728;SDS011;15126;42.186;24.340;2023-03-01T01:41:43;7.00;;;6.40;;
27728;SDS011;15126;42.186;24.340;2023-03-01T01:44:17;6.90;;;6.30;;
27728;SDS011;15126;42.186;24.340;2023-03-01T01:46:47;7.67;;;6.97;;
27728;SDS011;15126;42.186;24.340;2023-03-01T01:49:25;7.03;;;6.33;;
27728;SDS011;15126;42.186;24.340;2023-03-01T01:51:58;7.43;;;6.83;;
27728;SDS011;15126;42.186;24.340;2023-03-01T01:54:34;8.23;;;7.10;;
27728;SDS011;15126;42.186;24.340;2023-03-01T01:57:07;10.07;;;7.73;;
27728;SDS011;15126;42.186;24.340;2023-03-01T01:59:38;8.13;;;6.83;;
27728;SDS011;15126;42.186;24.340;2023-03-01T02:02:09;8.50;;;7.77;;
27728;SDS011;15126;42.186;24.340;2023-03-01T02:04:36;9.90;;;8.50;;
27728;SDS011;15126;42.186;24.340;2023-03-01T02:07:03;10.47;;;9.47;;
27728;SDS011;15126;42.186;24.340;2023-03-01T02:09:38;10.07;;;8.97;;
27728;SDS011;15126;42.186;24.340;2023-03-01T02:12:07;10.97;;;9.87;;
27728;SDS011;15126;42.186;24.340;2023-03-01T02:14:34;11.43;;;9.87;;
27728;SDS011;15126;42.186;24.340;2023-03-01T02:17:01;11.00;;;9.93;;
27728;SDS011;15126;42.186;24.340;2023-03-01T02:19:31;11.57;;;10.47;;
27728;SDS011;15126;42.186;24.340;2023-03-01T02:22:18;11.53;;;10.50;;
27728;SDS011;15126;42.186;24.340;2023-03-01T02:24:53;11.40;;;10.30;;
27728;SDS011;15126;42.186;24.340;2023-03-01T02:27:33;11.60;;;10.50;;
27728;SDS011;15126;42.186;24.340;2023-03-01T02:30:09;11.60;;;10.50;;
27728;SDS011;15126;42.186;24.340;2023-03-01T02:32:39;12.00;;;10.40;;
27728;SDS011;15126;42.186;24.340;2023-03-01T02:35:07;13.83;;;11.83;;
27728;SDS011;15126;42.186;24.340;2023-03-01T02:37:37;11.93;;;10.73;;
27728;SDS011;15126;42.186;24.340;2023-03-01T02:40:06;13.13;;;11.77;;
27728;SDS011;15126;42.186;24.340;2023-03-01T02:42:40;14.57;;;13.03;;
27728;SDS011;15126;42.186;24.340;2023-03-01T02:45:15;13.03;;;11.10;;
27728;SDS011;15126;42.186;24.340;2023-03-01T02:47:42;11.60;;;10.47;;
27728;SDS011;15126;42.186;24.340;2023-03-01T02:50:12;10.90;;;9.80;;
27728;SDS011;15126;42.186;24.340;2023-03-01T02:52:47;11.30;;;10.10;;
27728;SDS011;15126;42.186;24.340;2023-03-01T02:55:22;9.77;;;8.77;;
27728;SDS011;15126;42.186;24.340;2023-03-01T02:57:49;8.90;;;8.10;;
27728;SDS011;15126;42.186;24.340;2023-03-01T03:00:18;8.93;;;8.03;;
27728;SDS011;15126;42.186;24.340;2023-03-01T03:02:51;7.87;;;7.13;;
27728;SDS011;15126;42.186;24.340;2023-03-01T03:05:22;7.93;;;7.13;;
27728;SDS011;15126;42.186;24.340;2023-03-01T03:07:51;8.30;;;7.43;;
27728;SDS011;15126;42.186;24.340;2023-03-01T03:10:19;7.07;;;6.47;;
27728;SDS011;15126;42.186;24.340;2023-03-01T03:12:51;7.53;;;6.83;;
27728;SDS011;15126;42.186;24.340;2023-03-01T03:15:21;7.73;;;6.87;;
27728;SDS011;15126;42.186;24.340;2023-03-01T03:17:48;8.40;;;7.70;;
27728;SDS011;15126;42.186;24.340;2023-03-01T03:20:16;8.37;;;7.57;;
27728;SDS011;15126;42.186;24.340;2023-03-01T03:22:45;8.87;;;7.80;;
27728;SDS011;15126;42.186;24.340;2023-03-01T03:25:12;8.93;;;8.03;;
27728;SDS011;15126;42.186;24.340;2023-03-01T03:27:40;9.30;;;8.40;;
27728;SDS011;15126;42.186;24.340;2023-03-01T03:30:11;9.20;;;8.30;;
27728;SDS011;15126;42.186;24.340;2023-03-01T03:32:41;10.27;;;9.27;;
27728;SDS011;15126;42.186;24.340;2023-03-01T03:35:15;9.43;;;8.63;;
27728;SDS011;15126;42.186;24.340;2023-03-01T03:37:42;9.93;;;9.03;;
27728;SDS011;15126;42.186;24.340;2023-03-01T03:40:27;9.83;;;8.93;;
27728;SDS011;15126;42.186;24.340;2023-03-01T03:42:56;11.17;;;10.13;;
27728;SDS011;15126;42.186;24.340;2023-03-01T03:45:23;9.37;;;8.53;;
27728;SDS011;15126;42.186;24.340;2023-03-01T03:47:51;9.83;;;8.93;;
27728;SDS011;15126;42.186;24.340;2023-03-01T03:50:18;9.83;;;8.93;;
27728;SDS011;15126;42.186;24.340;2023-03-01T03:52:45;10.07;;;9.17;;
27728;SDS011;15126;42.186;24.340;2023-03-01T03:55:12;11.13;;;9.70;;
27728;SDS011;15126;42.186;24.340;2023-03-01T03:57:39;10.33;;;9.40;;
27728;SDS011;15126;42.186;24.340;2023-03-01T04:00:08;10.87;;;9.83;;
27728;SDS011;15126;42.186;24.340;2023-03-01T04:02:38;12.30;;;10.53;;
27728;SDS011;15126;42.186;24.340;2023-03-01T04:05:07;9.97;;;8.97;;
27728;SDS011;15126;42.186;24.340;2023-03-01T04:07:35;11.53;;;10.43;;
27728;SDS011;15126;42.186;24.340;2023-03-01T04:10:03;11.97;;;10.83;;
27728;SDS011;15126;42.186;24.340;2023-03-01T04:12:31;11.27;;;10.23;;
27728;SDS011;15126;42.186;24.340;2023-03-01T04:14:59;12.13;;;11.03;;
27728;SDS011;15126;42.186;24.340;2023-03-01T04:17:26;12.50;;;11.30;;
27728;SDS011;15126;42.186;24.340;2023-03-01T04:19:53;12.93;;;11.70;;
27728;SDS011;15126;42.186;24.340;2023-03-01T04:22:21;12.67;;;11.47;;
27728;SDS011;15126;42.186;24.340;2023-03-01T04:24:48;14.93;;;13.43;;
27728;SDS011;15126;42.186;24.340;2023-03-01T04:27:14;13.53;;;12.13;;
27728;SDS011;15126;42.186;24.340;2023-03-01T04:29:41;14.27;;;12.70;;
27728;SDS011;15126;42.186;24.340;2023-03-01T04:32:08;15.07;;;13.57;;
27728;SDS011;15126;42.186;24.340;2023-03-01T04:34:35;14.27;;;12.80;;
27728;SDS011;15126;42.186;24.340;2023-03-01T04:37:02;14.43;;;13.03;;
27728;SDS011;15126;42.186;24.340;2023-03-01T04:39:30;12.40;;;11.10;;
27728;SDS011;15126;42.186;24.340;2023-03-01T04:41:57;12.90;;;11.70;;
27728;SDS011;15126;42.186;24.340;2023-03-01T04:44:24;12.43;;;11.23;;
27728;SDS011;15126;42.186;24.340;2023-03-01T04:47:10;13.30;;;12.10;;
27728;SDS011;15126;42.186;24.340;2023-03-01T04:49:57;12.63;;;11.43;;
27728;SDS011;15126;42.186;24.340;2023-03-01T04:52:24;13.17;;;11.90;;
27728;SDS011;15126;42.186;24.340;2023-03-01T04:54:52;12.10;;;11.00;;
27728;SDS011;15126;42.186;24.340;2023-03-01T04:57:39;12.73;;;11.27;;
27728;SDS011;15126;42.186;24.340;2023-03-01T05:00:26;14.23;;;12.80;;
27728;SDS011;15126;42.186;24.340;2023-03-01T05:03:14;17.20;;;12.57;;
27728;SDS011;15126;42.186;24.340;2023-03-01T05:06:03;18.10;;;16.30;;
27728;SDS011;15126;42.186;24.340;2023-03-01T05:08:30;18.27;;;16.43;;
27728;SDS011;15126;42.186;24.340;2023-03-01T05:11:00;22.43;;;19.50;;
27728;SDS011;15126;42.186;24.340;2023-03-01T05:13:27;23.83;;;19.73;;
27728;SDS011;15126;42.186;24.340;2023-03-01T05:15:54;20.37;;;18.37;;
27728;SDS011;15126;42.186;24.340;2023-03-01T05:18:22;21.40;;;18.73;;
27728;SDS011;15126;42.186;24.340;2023-03-01T05:20:51;19.43;;;17.30;;
27728;SDS011;15126;42.186;24.340;2023-03-01T05:23:17;20.70;;;18.60;;
27728;SDS011;15126;42.186;24.340;2023-03-01T05:25:44;18.47;;;16.67;;
27728;SDS011;15126;42.186;24.340;2023-03-01T05:28:13;18.90;;;16.47;;
27728;SDS011;15126;42.186;24.340;2023-03-01T05:30:40;19.03;;;17.03;;
27728;SDS011;15126;42.186;24.340;2023-03-01T05:33:07;25.37;;;18.50;;
27728;SDS011;15126;42.186;24.340;2023-03-01T05:35:38;20.90;;;18.67;;
27728;SDS011;15126;42.186;24.340;2023-03-01T05:38:06;20.87;;;18.77;;
27728;SDS011;15126;42.186;24.340;2023-03-01T05:40:33;21.00;;;18.70;;
27728;SDS011;15126;42.186;24.340;2023-03-01T05:43:00;19.57;;;17.57;;
27728;SDS011;15126;42.186;24.340;2023-03-01T05:45:31;18.93;;;17.13;;
27728;SDS011;15126;42.186;24.340;2023-03-01T05:47:58;18.70;;;16.90;;
27728;SDS011;15126;42.186;24.340;2023-03-01T05:50:26;23.83;;;21.43;;
27728;SDS011;15126;42.186;24.340;2023-03-01T05:52:57;26.37;;;23.57;;
27728;SDS011;15126;42.186;24.340;2023-03-01T05:55:25;26.13;;;23.43;;
27728;SDS011;15126;42.186;24.340;2023-03-01T05:57:53;25.13;;;22.63;;
27728;SDS011;15126;42.186;24.340;2023-03-01T06:00:20;24.10;;;21.63;;
27728;SDS011;15126;42.186;24.340;2023-03-01T06:02:49;19.97;;;17.93;;
27728;SDS011;15126;42.186;24.340;2023-03-01T06:05:16;16.73;;;15.03;;
27728;SDS011;15126;42.186;24.340;2023-03-01T06:07:44;16.17;;;14.53;;
27728;SDS011;15126;42.186;24.340;2023-03-01T06:10:11;15.07;;;13.60;;
27728;SDS011;15126;42.186;24.340;2023-03-01T06:12:39;13.07;;;11.90;;
27728;SDS011;15126;42.186;24.340;2023-03-01T06:15:07;15.30;;;13.77;;
27728;SDS011;15126;42.186;24.340;2023-03-01T06:17:36;15.07;;;13.47;;
27728;SDS011;15126;42.186;24.340;2023-03-01T06:20:06;16.30;;;14.60;;
27728;SDS011;15126;42.186;24.340;2023-03-01T06:22:36;16.90;;;14.93;;
27728;SDS011;15126;42.186;24.340;2023-03-01T06:25:04;15.27;;;13.87;;
27728;SDS011;15126;42.186;24.340;2023-03-01T06:27:32;17.40;;;15.33;;
27728;SDS011;15126;42.186;24.340;2023-03-01T06:29:59;16.90;;;15.20;;
27728;SDS011;15126;42.186;24.340;2023-03-01T06:32:26;14.20;;;12.80;;
27728;SDS011;15126;42.186;24.340;2023-03-01T06:34:53;15.13;;;13.73;;
27728;SDS011;15126;42.186;24.340;2023-03-01T06:37:21;14.10;;;12.70;;
27728;SDS011;15126;42.186;24.340;2023-03-01T06:39:48;16.90;;;15.30;;
27728;SDS011;15126;42.186;24.340;2023-03-01T06:42:15;17.80;;;15.83;;
27728;SDS011;15126;42.186;24.340;2023-03-01T06:44:42;17.20;;;15.63;;
27728;SDS011;15126;42.186;24.340;2023-03-01T06:47:08;18.00;;;16.20;;
27728;SDS011;15126;42.186;24.340;2023-03-01T06:49:35;16.13;;;14.57;;
27728;SDS011;15126;42.186;24.340;2023-03-01T06:52:02;17.03;;;14.30;;
27728;SDS011;15126;42.186;24.340;2023-03-01T06:54:30;15.83;;;14.33;;
27728;SDS011;15126;42.186;24.340;2023-03-01T06:56:57;16.13;;;14.53;;
27728;SDS011;15126;42.186;24.340;2023-03-01T06:59:24;15.40;;;13.93;;
27728;SDS011;15126;42.186;24.340;2023-03-01T07:01:51;14.43;;;13.03;;
27728;SDS011;15126;42.186;24.340;2023-03-01T07:04:18;14.37;;;13.10;;
27728;SDS011;15126;42.186;24.340;2023-03-01T07:06:44;14.10;;;12.80;;
27728;SDS011;15126;42.186;24.340;2023-03-01T07:09:17;16.83;;;14.83;;
27728;SDS011;15126;42.186;24.340;2023-03-01T07:11:46;15.23;;;13.77;;
27728;SDS011;15126;42.186;24.340;2023-03-01T07:14:13;13.70;;;12.43;;
27728;SDS011;15126;42.186;24.340;2023-03-01T07:16:40;14.90;;;13.10;;
27728;SDS011;15126;42.186;24.340;2023-03-01T07:19:06;15.13;;;13.77;;
27728;SDS011;15126;42.186;24.340;2023-03-01T07:21:33;16.67;;;12.73;;
27728;SDS011;15126;42.186;24.340;2023-03-01T07:24:00;15.13;;;13.70;;
27728;SDS011;15126;42.186;24.340;2023-03-01T07:26:27;15.20;;;13.60;;
27728;SDS011;15126;42.186;24.340;2023-03-01T07:28:55;12.63;;;11.43;;
27728;SDS011;15126;42.186;24.340;2023-03-01T07:31:24;14.07;;;12.87;;
27728;SDS011;15126;42.186;24.340;2023-03-01T07:33:52;13.70;;;12.23;;
27728;SDS011;15126;42.186;24.340;2023-03-01T07:36:19;13.87;;;12.43;;
27728;SDS011;15126;42.186;24.340;2023-03-01T07:38:46;11.73;;;10.57;;
27728;SDS011;15126;42.186;24.340;2023-03-01T07:41:13;12.93;;;11.73;;
27728;SDS011;15126;42.186;24.340;2023-03-01T07:43:40;15.77;;;12.10;;
27728;SDS011;15126;42.186;24.340;2023-03-01T07:46:08;12.33;;;11.13;;
27728;SDS011;15126;42.186;24.340;2023-03-01T07:48:35;13.33;;;11.43;;
27728;SDS011;15126;42.186;24.340;2023-03-01T07:51:03;12.00;;;10.77;;
27728;SDS011;15126;42.186;24.340;2023-03-01T07:53:31;13.70;;;12.30;;
27728;SDS011;15126;42.186;24.340;2023-03-01T07:56:03;12.93;;;11.70;;
27728;SDS011;15126;42.186;24.340;2023-03-01T07:58:30;16.10;;;13.53;;
27728;SDS011;15126;42.186;24.340;2023-03-01T08:01:00;14.33;;;11.93;;
27728;SDS011;15126;42.186;24.340;2023-03-01T08:03:30;14.03;;;12.53;;
27728;SDS011;15126;42.186;24.340;2023-03-01T08:05:59;15.57;;;11.57;;
27728;SDS011;15126;42.186;24.340;2023-03-01T08:08:26;13.73;;;12.43;;
27728;SDS011;15126;42.186;24.340;2023-03-01T08:10:55;12.23;;;10.90;;
27728;SDS011;15126;42.186;24.340;2023-03-01T08:13:23;11.97;;;10.77;;
27728;SDS011;15126;42.186;24.340;2023-03-01T08:15:50;10.57;;;9.63;;
27728;SDS011;15126;42.186;24.340;2023-03-01T08:18:18;10.87;;;9.87;;
27728;SDS011;15126;42.186;24.340;2023-03-01T08:20:48;10.50;;;9.47;;
27728;SDS011;15126;42.186;24.340;2023-03-01T08:23:14;12.33;;;10.53;;
27728;SDS011;15126;42.186;24.340;2023-03-01T08:25:41;11.73;;;10.63;;
27728;SDS011;15126;42.186;24.340;2023-03-01T08:28:08;11.00;;;9.90;;
27728;SDS011;15126;42.186;24.340;2023-03-01T08:30:35;11.43;;;10.43;;
27728;SDS011;15126;42.186;24.340;2023-03-01T08:33:03;14.70;;;10.20;;
27728;SDS011;15126;42.186;24.340;2023-03-01T08:35:30;10.63;;;9.73;;
27728;SDS011;15126;42.186;24.340;2023-03-01T08:37:58;8.93;;;8.20;;
27728;SDS011;15126;42.186;24.340;2023-03-01T08:40:25;9.67;;;8.57;;
27728;SDS011;15126;42.186;24.340;2023-03-01T08:42:52;9.87;;;9.07;;
27728;SDS011;15126;42.186;24.340;2023-03-01T08:45:19;9.23;;;8.40;;
27728;SDS011;15126;42.186;24.340;2023-03-01T08:47:45;12.40;;;9.47;;
27728;SDS011;15126;42.186;24.340;2023-03-01T08:50:12;9.53;;;8.53;;
27728;SDS011;15126;42.186;24.340;2023-03-01T08:52:39;10.70;;;9.60;;
27728;SDS011;15126;42.186;24.340;2023-03-01T08:55:08;10.90;;;9.40;;
27728;SDS011;15126;42.186;24.340;2023-03-01T08:57:35;15.40;;;12.00;;
27728;SDS011;15126;42.186;24.340;2023-03-01T09:00:02;15.37;;;13.53;;
27728;SDS011;15126;42.186;24.340;2023-03-01T09:02:33;14.03;;;10.50;;
27728;SDS011;15126;42.186;24.340;2023-03-01T09:05:00;12.87;;;11.57;;
27728;SDS011;15126;42.186;24.340;2023-03-01T09:07:27;9.57;;;8.67;;
27728;SDS011;15126;42.186;24.340;2023-03-01T09:09:54;11.23;;;8.87;;
27728;SDS011;15126;42.186;24.340;2023-03-01T09:12:22;9.03;;;8.03;;
27728;SDS011;15126;42.186;24.340;2023-03-01T09:14:50;9.37;;;8.43;;
27728;SDS011;15126;42.186;24.340;2023-03-01T09:17:16;9.27;;;8.37;;
27728;SDS011;15126;42.186;24.340;2023-03-01T09:19:46;10.77;;;9.87;;
27728;SDS011;15126;42.186;24.340;2023-03-01T09:22:13;11.30;;;10.20;;
27728;SDS011;15126;42.186;24.340;2023-03-01T09:24:40;12.33;;;10.20;;
27728;SDS011;15126;42.186;24.340;2023-03-01T09:27:07;13.67;;;12.47;;
27728;SDS011;15126;42.186;24.340;2023-03-01T09:29:35;10.07;;;9.07;;
27728;SDS011;15126;42.186;24.340;2023-03-01T09:32:02;8.80;;;8.10;;
27728;SDS011;15126;42.186;24.340;2023-03-01T09:34:29;9.10;;;8.23;;
27728;SDS011;15126;42.186;24.340;2023-03-01T09:36:57;8.43;;;7.50;;
27728;SDS011;15126;42.186;24.340;2023-03-01T09:39:27;10.63;;;8.03;;
27728;SDS011;15126;42.186;24.340;2023-03-01T09:41:56;9.67;;;8.80;;
27728;SDS011;15126;42.186;24.340;2023-03-01T09:44:29;11.67;;;9.67;;
27728;SDS011;15126;42.186;24.340;2023-03-01T09:47:03;11.37;;;10.30;;
27728;SDS011;15126;42.186;24.340;2023-03-01T09:49:31;13.70;;;10.53;;
27728;SDS011;15126;42.186;24.340;2023-03-01T09:52:03;16.63;;;10.23;;
27728;SDS011;15126;42.186;24.340;2023-03-01T09:54:38;7.77;;;7.17;;
27728;SDS011;15126;42.186;24.340;2023-03-01T09:57:06;10.80;;;7.40;;
27728;SDS011;15126;42.186;24.340;2023-03-01T09:59:50;7.90;;;7.17;;
27728;SDS011;15126;42.186;24.340;2023-03-01T10:02:28;10.13;;;7.53;;
27728;SDS011;15126;42.186;24.340;2023-03-01T10:05:05;9.00;;;8.00;;
27728;SDS011;15126;42.186;24.340;2023-03-01T10:07:42;15.03;;;8.97;;
27728;SDS011;15126;42.186;24.340;2023-03-01T10:10:16;9.77;;;8.37;;
27728;SDS011;15126;42.186;24.340;2023-03-01T10:12:52;9.77;;;7.90;;
27728;SDS011;15126;42.186;24.340;2023-03-01T10:15:22;9.57;;;8.40;;
27728;SDS011;15126;42.186;24.340;2023-03-01T10:18:01;10.33;;;9.37;;
27728;SDS011;15126;42.186;24.340;2023-03-01T10:20:33;10.13;;;9.23;;
27728;SDS011;15126;42.186;24.340;2023-03-01T10:23:11;9.63;;;8.70;;
27728;SDS011;15126;42.186;24.340;2023-03-01T10:25:47;25.33;;;19.10;;
27728;SDS011;15126;42.186;24.340;2023-03-01T10:28:24;26.23;;;20.97;;
27728;SDS011;15126;42.186;24.340;2023-03-01T10:30:55;9.53;;;7.53;;
27728;SDS011;15126;42.186;24.340;2023-03-01T10:33:25;10.30;;;9.47;;
27728;SDS011;15126;42.186;24.340;2023-03-01T10:35:54;12.77;;;11.60;;
27728;SDS011;15126;42.186;24.340;2023-03-01T10:38:21;21.03;;;15.40;;
27728;SDS011;15126;42.186;24.340;2023-03-01T10:40:51;18.97;;;16.83;;
27728;SDS011;15126;42.186;24.340;2023-03-01T10:43:22;11.33;;;10.20;;
27728;SDS011;15126;42.186;24.340;2023-03-01T10:45:50;15.97;;;14.37;;
27728;SDS011;15126;42.186;24.340;2023-03-01T10:48:18;16.50;;;14.77;;
27728;SDS011;15126;42.186;24.340;2023-03-01T10:50:50;20.53;;;16.57;;
27728;SDS011;15126;42.186;24.340;2023-03-01T10:53:32;16.43;;;12.43;;
27728;SDS011;15126;42.186;24.340;2023-03-01T10:56:03;15.10;;;13.63;;
27728;SDS011;15126;42.186;24.340;2023-03-01T10:58:32;13.23;;;11.93;;
27728;SDS011;15126;42.186;24.340;2023-03-01T11:01:01;14.43;;;12.93;;
27728;SDS011;15126;42.186;24.340;2023-03-01T11:03:31;20.10;;;17.97;;
27728;SDS011;15126;42.186;24.340;2023-03-01T11:06:04;14.93;;;13.33;;
27728;SDS011;15126;42.186;24.340;2023-03-01T11:08:33;13.70;;;12.27;;
27728;SDS011;15126;42.186;24.340;2023-03-01T11:11:07;22.83;;;16.67;;
27728;SDS011;15126;42.186;24.340;2023-03-01T11:13:56;28.00;;;21.10;;
27728;SDS011;15126;42.186;24.340;2023-03-01T11:16:26;19.63;;;15.87;;
27728;SDS011;15126;42.186;24.340;2023-03-01T11:18:56;14.97;;;9.83;;
27728;SDS011;15126;42.186;24.340;2023-03-01T11:21:25;18.03;;;14.90;;
27728;SDS011;15126;42.186;24.340;2023-03-01T11:23:54;14.03;;;12.63;;
27728;SDS011;15126;42.186;24.340;2023-03-01T11:26:22;14.63;;;13.30;;
27728;SDS011;15126;42.186;24.340;2023-03-01T11:28:50;23.90;;;20.90;;
27728;SDS011;15126;42.186;24.340;2023-03-01T11:31:22;21.67;;;16.33;;
27728;SDS011;15126;42.186;24.340;2023-03-01T11:33:53;27.47;;;19.70;;
27728;SDS011;15126;42.186;24.340;2023-03-01T11:36:26;19.80;;;14.90;;
27728;SDS011;15126;42.186;24.340;2023-03-01T11:38:57;19.27;;;15.30;;
27728;SDS011;15126;42.186;24.340;2023-03-01T11:41:34;28.43;;;17.47;;
27728;SDS011;15126;42.186;24.340;2023-03-01T11:44:09;50.53;;;28.10;;
27728;SDS011;15126;42.186;24.340;2023-03-01T11:46:50;18.60;;;14.40;;
27728;SDS011;15126;42.186;24.340;2023-03-01T11:49:45;13.57;;;12.20;;
27728;SDS011;15126;42.186;24.340;2023-03-01T11:52:31;19.13;;;14.00;;
27728;SDS011;15126;42.186;24.340;2023-03-01T11:55:12;21.60;;;14.13;;
27728;SDS011;15126;42.186;24.340;2023-03-01T11:57:55;22.83;;;13.73;;
27728;SDS011;15126;42.186;24.340;2023-03-01T12:00:39;23.67;;;14.13;;
27728;SDS011;15126;42.186;24.340;2023-03-01T12:03:23;17.23;;;14.90;;
27728;SDS011;15126;42.186;24.340;2023-03-01T12:05:58;24.87;;;18.20;;
27728;SDS011;15126;42.186;24.340;2023-03-01T12:08:34;25.93;;;14.33;;
27728;SDS011;15126;42.186;24.340;2023-03-01T12:11:10;20.27;;;13.37;;
27728;SDS011;15126;42.186;24.340;2023-03-01T12:13:50;22.70;;;15.00;;
27728;SDS011;15126;42.186;24.340;2023-03-01T12:16:52;42.83;;;22.93;;
27728;SDS011;15126;42.186;24.340;2023-03-01T12:19:45;28.63;;;17.60;;
27728;SDS011;15126;42.186;24.340;2023-03-01T12:22:29;34.80;;;21.03;;
27728;SDS011;15126;42.186;24.340;2023-03-01T12:25:04;13.90;;;11.33;;
27728;SDS011;15126;42.186;24.340;2023-03-01T12:27:51;31.20;;;17.07;;
27728;SDS011;15126;42.186;24.340;2023-03-01T12:30:33;20.57;;;15.27;;
27728;SDS011;15126;42.186;24.340;2023-03-01T12:33:13;18.57;;;13.23;;
27728;SDS011;15126;42.186;24.340;2023-03-01T12:35:49;22.73;;;16.93;;
27728;SDS011;15126;42.186;24.340;2023-03-01T12:38:32;15.00;;;13.23;;
27728;SDS011;15126;42.186;24.340;2023-03-01T12:41:10;13.93;;;12.43;;
27728;SDS011;15126;42.186;24.340;2023-03-01T12:43:58;10.50;;;9.50;;
27728;SDS011;15126;42.186;24.340;2023-03-01T12:46:36;9.17;;;8.37;;
27728;SDS011;15126;42.186;24.340;2023-03-01T12:49:18;8.60;;;7.77;;
27728;SDS011;15126;42.186;24.340;2023-03-01T12:51:51;10.20;;;8.47;;
27728;SDS011;15126;42.186;24.340;2023-03-01T12:54:26;9.47;;;8.53;;
27728;SDS011;15126;42.186;24.340;2023-03-01T12:56:56;8.87;;;7.97;;
27728;SDS011;15126;42.186;24.340;2023-03-01T12:59:29;13.73;;;10.77;;
27728;SDS011;15126;42.186;24.340;2023-03-01T13:02:04;19.23;;;13.20;;
27728;SDS011;15126;42.186;24.340;2023-03-01T13:04:46;20.30;;;11.97;;
27728;SDS011;15126;42.186;24.340;2023-03-01T13:07:24;17.30;;;11.97;;
27728;SDS011;15126;42.186;24.340;2023-03-01T13:09:59;18.90;;;14.43;;
27728;SDS011;15126;42.186;24.340;2023-03-01T13:12:52;17.87;;;15.17;;
27728;SDS011;15126;42.186;24.340;2023-03-01T13:19:13;17.60;;;13.27;;
27728;SDS011;15126;42.186;24.340;2023-03-01T13:21:42;14.23;;;10.10;;
27728;SDS011;15126;42.186;24.340;2023-03-01T13:24:29;17.43;;;13.00;;
27728;SDS011;15126;42.186;24.340;2023-03-01T13:27:21;23.27;;;13.43;;
27728;SDS011;15126;42.186;24.340;2023-03-01T13:29:56;17.57;;;12.33;;
27728;SDS011;15126;42.186;24.340;2023-03-01T13:32:29;19.00;;;13.87;;
27728;SDS011;15126;42.186;24.340;2023-03-01T13:34:58;15.63;;;12.60;;
27728;SDS011;15126;42.186;24.340;2023-03-01T13:37:30;21.20;;;13.37;;
27728;SDS011;15126;42.186;24.340;2023-03-01T13:39:59;25.07;;;14.13;;
27728;SDS011;15126;42.186;24.340;2023-03-01T13:42:40;16.17;;;14.43;;
27728;SDS011;15126;42.186;24.340;2023-03-01T13:48:02;15.10;;;11.53;;
27728;SDS011;15126;42.186;24.340;2023-03-01T13:50:36;14.63;;;10.50;;
27728;SDS011;15126;42.186;24.340;2023-03-01T13:53:12;11.93;;;9.13;;
27728;SDS011;15126;42.186;24.340;2023-03-01T13:55:44;15.83;;;11.57;;
27728;SDS011;15126;42.186;24.340;2023-03-01T13:58:15;10.23;;;9.20;;
27728;SDS011;15126;42.186;24.340;2023-03-01T14:00:54;18.97;;;12.53;;
27728;SDS011;15126;42.186;24.340;2023-03-01T14:03:22;23.13;;;14.93;;
27728;SDS011;15126;42.186;24.340;2023-03-01T14:06:00;12.30;;;10.53;;
27728;SDS011;15126;42.186;24.340;2023-03-01T14:08:31;23.23;;;15.87;;
27728;SDS011;15126;42.186;24.340;2023-03-01T14:11:13;10.57;;;9.60;;
27728;SDS011;15126;42.186;24.340;2023-03-01T14:14:12;12.57;;;9.97;;
27728;SDS011;15126;42.186;24.340;2023-03-01T14:16:53;12.03;;;10.90;;
27728;SDS011;15126;42.186;24.340;2023-03-01T14:19:30;10.30;;;9.40;;
27728;SDS011;15126;42.186;24.340;2023-03-01T14:22:04;10.60;;;9.60;;
27728;SDS011;15126;42.186;24.340;2023-03-01T14:24:39;9.53;;;8.63;;
27728;SDS011;15126;42.186;24.340;2023-03-01T14:27:12;11.50;;;10.07;;
27728;SDS011;15126;42.186;24.340;2023-03-01T14:29:40;10.10;;;9.27;;
27728;SDS011;15126;42.186;24.340;2023-03-01T14:32:15;11.23;;;10.33;;
27728;SDS011;15126;42.186;24.340;2023-03-01T14:34:46;48.07;;;25.47;;
27728;SDS011;15126;42.186;24.340;2023-03-01T14:37:19;13.03;;;11.70;;
27728;SDS011;15126;42.186;24.340;2023-03-01T14:39:48;10.70;;;9.60;;
27728;SDS011;15126;42.186;24.340;2023-03-01T14:42:16;13.47;;;11.87;;
27728;SDS011;15126;42.186;24.340;2023-03-01T14:44:45;18.50;;;14.70;;
27728;SDS011;15126;42.186;24.340;2023-03-01T14:47:15;30.87;;;19.07;;